Red Bay, Alabama
Current Conditions -  °F | °C
As of 2:56 PM on Saturday 20 Dec 2014 (Local Time) from K1M4 Reporting Station
Clear Clear  
Wind Chill: 51°   Ceiling: Unl
Heat Index: 51°   Visibility: 10mi
Dew Point: 34°   Wind: 7mph
Humidity: 52%   Direction: NA
Pressure: 30.2"   Gusts: NA
Location:  34.44°N, 88.14°W
Report Text: K1M4 202056Z AUTO VRB06KT 10SM CLR 11/01 A3020 RMK AO2 55013 T01050011 SLP236 $
Loading
Personal Weather Stations






























Interactive Weather Map New forecast layout! Learn more

10-Day Weather Forecast

Advertisements
Track Severe Weather on mobile